Station CHII2 - Harrison-Dever Crib, Chicago, IL Image indicating link to RSS feed of recent meteorological observations for station CHII2


Conditions at CHII2 as of
(6:30 am CDT)
1130 GMT on 04/21/2024:
     

Click on the graph icon in the table below to see a time series plot of the last five days of that observation.

5-day plot - Wind Direction Wind Direction (WDIR): W ( 270 deg true )
5-day plot - Wind Speed Wind Speed (WSPD): 13 kts
5-day plot - Wind Gust Wind Gust (GST): 14 kts
5-day plot - Air Temperature Air Temperature (ATMP): 39.9 °F
5-day plot - Dew Point Dew Point (DEWP): 27.1 °F
5-day plot - Wind Chill Wind Chill (CHILL): 31.8 °F
5-day plot -  Wind Speed, Wind Gust and Atmospheric Pressure Combined plot of Wind Speed, Gust, and Air Pressure
Previous observations
TIME
(CDT)
5-day plot - Wind Direction
WDIR
 
5-day plot - Wind Speed
WSPD
kts
5-day plot - Wind Gust
GST
kts
5-day plot - Wave Height
WVHT
ft
5-day plot - Dominant Wave Period
DPD
sec
5-day plot - Average Wave Period
APD
sec
5-day plot - Mean Wave Direction
MWD
 
5-day plot - Atmospheric Pressure
PRES
in
5-day plot - Pressure Tendency
PTDY
in
5-day plot - Air Temperature
ATMP
°F
5-day plot - Water Temperature
WTMP
°F
5-day plot - Dew Point
DEWP
°F
5-day plot - Salinity
SAL
psu
5-day plot - Visibility
VIS
nmi
5-day plot - Tide (above MLLW)
TIDE
ft
2024-04-21 06:20 am W 12 13------ 39.7- 25.9---
2024-04-21 06:10 am W 11 13------ 40.1- 26.2---
2024-04-21 05:50 am W 12 14------ 40.5- 26.4---
2024-04-21 05:40 am W 12 14------ 40.8- 26.8---
2024-04-21 05:30 am W 10 11------ 41.0- 26.6---
2024-04-21 05:00 amWNW 12 14------ 40.8- 25.2---
2024-04-21 04:50 amWNW 10 13------ 41.2- 25.3---
2024-04-21 04:40 am NW 10 12------ 41.4- 25.2---
2024-04-21 04:30 amWNW 11 13------ 41.4- 24.8---
2024-04-21 04:20 am NW 11 13------ 41.5- 25.2---
2024-04-21 04:10 amWNW 13 16------ 41.5- 25.5---
2024-04-21 04:00 am NW 11 14------ 41.5- 25.7---
2024-04-21 03:50 amWNW 11 13------ 41.2- 25.0---
2024-04-21 03:40 amWNW 14 17------ 41.4- 25.0---
2024-04-21 03:20 amWNW 11 16------ 41.4- 24.8---
2024-04-21 03:10 amWNW 13 15------ 41.4- 25.2---
2024-04-21 03:00 amWNW 13 16------ 41.7- 26.1---
2024-04-21 02:50 amWNW 14 16------ 41.4- 24.8---
2024-04-21 02:40 amWNW 15 18------ 41.5- 25.2---
2024-04-21 02:30 amWNW 12 15------ 41.4- 25.0---
2024-04-21 02:20 am NW 14 17------ 41.4- 24.1---
2024-04-21 02:10 amWNW 11 14------ 41.4- 23.5---
2024-04-21 01:50 amWNW 13 15------ 41.4- 23.7---
2024-04-21 01:40 am NW 13 15------ 41.4- 24.8---
2024-04-21 12:30 am NW 18 19------ 41.2- 25.9---
2024-04-21 12:20 amWNW 18 20------ 41.2- 26.6---
2024-04-20 11:50 pmWNW 15 17------ 41.5- 25.2---
2024-04-20 11:40 pm NW 14 15------ 41.9- 27.3---
2024-04-20 11:30 pm NW 15 17------ 41.7- 25.7---
2024-04-20 11:20 pm NW 15 18------ 41.9- 27.1---
2024-04-20 11:10 pmWNW 17 19------ 41.7- 27.1---
2024-04-20 11:00 pm NW 17 20------ 41.9- 26.6---
2024-04-20 10:50 pm NW 17 18------ 42.1- 27.5---
2024-04-20 10:40 pmWNW 18 20------ 42.6- 28.0---
2024-04-20 10:30 pmWNW 16 18------ 42.4- 26.4---
2024-04-20 10:20 pmWNW 19 21------ 42.4- 26.2---
2024-04-20 10:10 pmWNW 19 21------ 42.6- 27.0---
2024-04-20 10:00 pmWNW 19 22------ 42.6- 27.9---
2024-04-20 09:30 pm NW 18 20------ 43.3- 27.0---
2024-04-20 09:20 pm NW 17 18------ 43.3- 26.8---
2024-04-20 09:10 pmWNW 16 18------ 43.3- 26.8---
2024-04-20 08:50 pmWNW 15 18------ 43.3- 25.9---
2024-04-20 08:40 pmWNW 17 19------ 43.3- 26.2---
2024-04-20 08:20 pmWNW 17 18------ 43.5- 26.8---
2024-04-20 08:10 pmWNW 15 17------ 43.3- 26.6---
2024-04-20 08:00 pmWNW 14 16------ 43.5- 27.0---
2024-04-20 07:30 pmWNW 17 21------ 43.3- 25.2---
2024-04-20 07:20 pmWNW 15 18------ 43.5- 26.2---
2024-04-20 07:10 pmWNW 18 20------ 43.9- 26.6---
2024-04-20 07:00 pmWNW 18 21------ 44.2- 27.7---
2024-04-20 06:20 pmWNW 17 21------ 44.2- 25.5---
2024-04-20 06:10 pmWNW 19 21------ 44.6- 26.6---
2024-04-20 06:00 pmWNW 15 18------ 44.8- 25.7---
2024-04-20 05:30 pmWNW 14 17------ 44.8- 24.6---
2024-04-20 05:20 pmWNW 16 19------ 44.8- 25.9---
2024-04-20 05:10 pmWNW 16 18------ 44.6- 26.4---
2024-04-20 05:00 pmWNW 18 21------ 44.8- 25.9---
2024-04-20 04:30 pmWNW 16 19------ 44.8- 25.5---
2024-04-20 04:20 pmWNW 13 16------ 44.8- 25.5---
2024-04-20 04:10 pm W 16 21------ 44.8- 25.3---
2024-04-20 03:30 pm W 17 20------ 45.3- 26.6---
2024-04-20 03:20 pm W 15 20------ 45.0- 24.8---
2024-04-20 03:10 pmWNW 19 22------ 44.8- 24.4---
2024-04-20 03:00 pm W 20 23------ 45.1- 25.2---
2024-04-20 02:30 pmWNW 19 22------ 45.0- 23.9---
2024-04-20 02:20 pmWNW 16 17------ 45.1- 24.4---
2024-04-20 02:10 pm W 16 18------ 44.8- 23.4---
2024-04-20 02:00 pm W 21 24------ 44.8- 24.3---
2024-04-20 01:50 pm NW 14 17------ 45.0- 25.3---
2024-04-20 01:40 pmWNW 13 21------ 45.0- 23.0---
2024-04-20 01:00 pmWNW 9 10------ 43.9- 21.7---
2024-04-20 12:50 pm W 14 15------ 43.7- 22.3---
2024-04-20 12:40 pm W 15 17------ 43.5- 22.3---
2024-04-20 12:30 pm NW 13 15------ 43.5- 23.7---
2024-04-20 12:20 pm NW 9 11------ 43.2- 21.6---
2024-04-20 12:10 pm W 11 12------ 43.0- 22.3---
2024-04-20 12:00 pmWNW 11 13------ 43.2- 24.3---
2024-04-20 11:50 am W 13 16------ 42.6- 22.6---
2024-04-20 11:40 amWNW 12 15------ 42.8- 23.5---
2024-04-20 11:30 amWNW 11 13------ 42.4- 23.7---
2024-04-20 11:00 amWNW 17 19------ 42.4- 24.6---
2024-04-20 10:50 amWNW 14 17------ 42.1- 23.2---
2024-04-20 10:40 amWNW 9 11------ 41.9- 22.1---
2024-04-20 10:20 amWNW 14 17------ 41.5- 22.8---
2024-04-20 10:10 am NW 11 13------ 41.4- 23.4---
2024-04-20 10:00 amWNW 14 18------ 41.2- 24.1---
2024-04-20 09:50 amWNW 10 13------ 40.8- 23.7---
2024-04-20 09:40 am NW 14 17------ 40.8- 23.9---
2024-04-20 09:30 amWNW 14 17------ 40.5- 23.4---
2024-04-20 09:00 am NW 16 18------ 39.9- 24.6---
2024-04-20 08:50 am NW 17 20------ 39.7- 24.6---
2024-04-20 08:40 am NW 17 24------ 39.6- 25.0---
2024-04-20 07:00 amWNW 20 24------ 39.0- 24.1---
2024-04-20 06:50 amWNW 19 24------ 39.0- 23.9---